Antioch, Illinois
Current Conditions -  °F | °C
As of 12:53 PM on Tuesday 21 Oct 2014 (Local Time) from KENW Reporting Station
Overcast Overcast  
Wind Chill: 45°   Ceiling: 2700
Heat Index: 49°   Visibility: 10mi
Dew Point: 39°   Wind: 9mph
Humidity: 69%   Direction: 360°N
Pressure: 30.2"   Gusts: 21mph
Location:  42.48°N, 88.1°W
Report Text: KENW 211753Z 36008G18KT 10SM OVC027 09/04 A3020 RMK AO2 SLP230 T00940039 10111 20061 51009
Loading
Personal Weather Stations






























Interactive Weather Map
Tropical Storm Tracking
New forecast layout! Learn more

10-Day Weather Forecast

Advertisements
Track Severe Weather on mobile